MSC Lirica — HOPW — position and weather

sailwx.info

Track history (hours):
 
Tides and Currents Weather Stations Pressure Air Temp Water Temp Dewpoint Dewpoint Depression Visibility Wind Speed Wind Dir Waves Ship Positions

MSC Lirica

Operator: Mediterranean Shipping Company

Last reported at 2019-Apr-24 18:49 UTC. Time now 2019-Apr-25 10:47 UTC.
Position N 36°27' E 023°15'.

Length 275 m; draft 6.8 m.

Type: Passenger vessel. MMSI: 356042000.

Date/timePositionNaut miles runAvg speedWind from/ knotsBaromVisibWave heightAir tempDewpointWater temp
2019-Apr-24 18:49N 36°27' E 023°15'4818.6
2019-Apr-24 16:15N 37°10' E 023°39'518.8
2019-Apr-24 16:00N 37°15' E 023°41'918.4
2019-Apr-24 15:30N 37°23' E 023°44'918.7
2019-Apr-24 15:01N 37°33' E 023°43'918.2
2019-Apr-24 14:30N 37°42' E 023°41'918.1
2019-Apr-24 14:00N 37°50' E 023°37'612.7
2019-Apr-24 13:30N 37°56' E 023°37'0 0.6
2019-Apr-24 12:57N 37°56' E 023°38'0 0.0
2019-Apr-24 12:27N 37°56' E 023°38'0 0.0
2019-Apr-24 11:57N 37°56' E 023°38'0 0.0
2019-Apr-24 11:27N 37°56' E 023°38'0 0.0
2019-Apr-24 10:57N 37°56' E 023°38'0 0.0
2019-Apr-24 10:27N 37°56' E 023°38'0 0.0
2019-Apr-24 09:57N 37°56' E 023°38'0 0.0
2019-Apr-24 09:27N 37°56' E 023°38'0 0.0
2019-Apr-24 08:57N 37°56' E 023°38'0 0.0
2019-Apr-24 08:27N 37°56' E 023°38'0 0.0
2019-Apr-24 07:57N 37°56' E 023°38'0 0.0
2019-Apr-24 07:27N 37°56' E 023°38'0 0.0
2019-Apr-24 06:57N 37°56' E 023°38'0 0.0
2019-Apr-24 06:27N 37°56' E 023°38'0 0.0
2019-Apr-24 05:57N 37°56' E 023°38'0 0.0
2019-Apr-24 05:27N 37°56' E 023°38'0 0.0
2019-Apr-24 04:57N 37°56' E 023°38'0 0.0
2019-Apr-24 04:27N 37°56' E 023°38'0 0.0
2019-Apr-24 03:57N 37°56' E 023°38'0 0.3
2019-Apr-24 03:30N 37°56' E 023°38'3 5.0
2019-Apr-24 03:00N 37°54' E 023°35'4 7.2
2019-Apr-24 02:31N 37°52' E 023°39'612.2
2019-Apr-24 02:01N 37°47' E 023°42'713.8
2019-Apr-24 01:30N 37°40' E 023°45'715.0
2019-Apr-24 01:00N 37°32' E 023°45'714.9
2019-Apr-24 00:30N 37°25' E 023°45'714.7
2019-Apr-24 00:00N 37°18' E 023°43'714.7
2019-Apr-23 23:30N 37°11' E 023°40'1214.2
2019-Apr-23 22:41N 37°01' E 023°48'415.3
2019-Apr-23 22:24N 36°59' E 023°53'5312.5
2019-Apr-23 18:10N 37°33' E 024°44'316.8
2019-Apr-23 18:00N 37°33' E 024°48'816.5
2019-Apr-23 17:30N 37°32' E 024°58'817.0
2019-Apr-23 17:00N 37°29' E 025°08'816.0
2019-Apr-23 16:30N 37°28' E 025°18'1 2.0
2019-Apr-23 15:58N 37°28' E 025°19'0 0.0
2019-Apr-23 15:28N 37°28' E 025°19'0 0.0
2019-Apr-23 14:58N 37°28' E 025°19'0 0.0
2019-Apr-23 14:28N 37°28' E 025°19'0 0.0
2019-Apr-23 13:52N 37°28' E 025°19'0 0.0
2019-Apr-23 13:28N 37°28' E 025°19'0 0.0
2019-Apr-23 12:58N 37°28' E 025°19'0 0.0
2019-Apr-23 12:22N 37°28' E 025°19'0 0.0
2019-Apr-23 11:58N 37°28' E 025°19'0 0.0
2019-Apr-23 11:28N 37°28' E 025°19'0 0.0
2019-Apr-23 10:58N 37°28' E 025°19'0 0.0
2019-Apr-23 10:28N 37°28' E 025°19'0 0.0
2019-Apr-23 09:58N 37°28' E 025°19'0 0.0
2019-Apr-23 09:28N 37°28' E 025°19'0 0.0
2019-Apr-23 08:58N 37°28' E 025°19'0 0.0
2019-Apr-23 08:28N 37°28' E 025°19'0 0.0
2019-Apr-23 07:55N 37°28' E 025°19'0 0.0
2019-Apr-23 07:28N 37°28' E 025°19'2 5.3
2019-Apr-23 07:01N 37°28' E 025°16'816.1
2019-Apr-23 06:31N 37°24' E 025°07'918.2
2019-Apr-23 06:00N 37°17' E 024°59'918.7
2019-Apr-23 05:31N 37°12' E 024°50'  
2019-Apr-20 20:17N 44°13' E 013°12'519.0
2019-Apr-20 20:01N 44°18' E 013°09'1018.9
2019-Apr-20 19:30N 44°27' E 013°05'918.8
2019-Apr-20 19:01N 44°36' E 013°02'1018.9
2019-Apr-20 18:30N 44°45' E 012°57'918.8
2019-Apr-20 18:00N 44°53' E 012°51'918.8
2019-Apr-20 17:30N 45°01' E 012°45'918.3
2019-Apr-20 17:01N 45°08' E 012°36'917.1
2019-Apr-20 16:31N 45°15' E 012°29'917.4
2019-Apr-20 16:01N 45°24' E 012°29'5 9.5
2019-Apr-20 15:31N 45°26' E 012°23'3 5.0
2019-Apr-20 15:00N 45°26' E 012°19'1 1.3
2019-Apr-20 14:30N 45°26' E 012°19'0 0.0
2019-Apr-20 14:00N 45°26' E 012°19'0 0.0
2019-Apr-20 13:30N 45°26' E 012°19'0 0.0
2019-Apr-20 13:00N 45°26' E 012°19'0 0.0
2019-Apr-20 12:30N 45°26' E 012°19'0 0.0
2019-Apr-20 11:57N 45°26' E 012°19'0 0.0
2019-Apr-20 11:30N 45°26' E 012°19'0 0.0
2019-Apr-20 11:00N 45°26' E 012°19'0 0.0
2019-Apr-20 10:30N 45°26' E 012°19'0 0.0
2019-Apr-20 10:00N 45°26' E 012°19'0 0.0
2019-Apr-20 09:30N 45°26' E 012°19'0 0.0
2019-Apr-20 09:00N 45°26' E 012°19'0 0.0
2019-Apr-20 08:27N 45°26' E 012°19'0 0.0
2019-Apr-20 08:00N 45°26' E 012°19'0 0.0
2019-Apr-20 07:30N 45°26' E 012°19'0 0.0
2019-Apr-20 07:00N 45°26' E 012°19'1 1.0
2019-Apr-20 06:30N 45°26' E 012°19'3 5.4
2019-Apr-20 06:00N 45°26' E 012°23'4 7.8
2019-Apr-20 05:30N 45°24' E 012°28'4 8.1
2019-Apr-20 05:00N 45°21' E 012°31'713.8
2019-Apr-20 04:31N 45°15' E 012°36'918.8
2019-Apr-20 04:01N 45°09' E 012°46'918.8
2019-Apr-20 03:31N 45°04' E 012°58'918.9
2019-Apr-20 03:00N 45°00' E 013°10'918.9
2019-Apr-20 02:31N 44°56' E 013°22'918.7
2019-Apr-20 02:01N 44°48' E 013°29'918.6
2019-Apr-20 01:30N 44°41' E 013°36'918.6
2019-Apr-20 01:01N 44°33' E 013°44'918.5
2019-Apr-20 00:30N 44°25' E 013°51'1018.6
2019-Apr-19 23:59N 44°17' E 013°58'1618.6
2019-Apr-19 23:07N 44°04' E 014°11'218.6
2019-Apr-19 23:00N 44°02' E 014°13'  
2019-Apr-17 15:38N 37°17' E 023°42'618.7
2019-Apr-17 15:19N 37°23' E 023°44'618.8
2019-Apr-17 15:00N 37°29' E 023°43'918.4
2019-Apr-17 14:30N 37°38' E 023°43'918.5
2019-Apr-17 14:00N 37°47' E 023°38'917.6
2019-Apr-17 13:30N 37°56' E 023°37'1 1.7
2019-Apr-17 13:00N 37°56' E 023°37'0 0.0
2019-Apr-17 12:30N 37°56' E 023°37'0 0.0
2019-Apr-17 12:00N 37°56' E 023°37'0 0.0
2019-Apr-17 11:30N 37°56' E 023°37'0 0.0
2019-Apr-17 11:00N 37°56' E 023°37'0 0.0
2019-Apr-17 10:30N 37°56' E 023°37'0 0.0
2019-Apr-17 10:00N 37°56' E 023°37'0 0.0
2019-Apr-17 09:30N 37°56' E 023°37'0 0.0
2019-Apr-17 09:00N 37°56' E 023°37'0 0.0
2019-Apr-17 08:30N 37°56' E 023°37'0 0.0
2019-Apr-17 08:00N 37°56' E 023°37'0 0.0
2019-Apr-17 07:30N 37°56' E 023°37'0 0.0
2019-Apr-17 07:00N 37°56' E 023°37'0 0.0
2019-Apr-17 06:30N 37°56' E 023°37'0 0.0
2019-Apr-17 06:00N 37°56' E 023°37'0 0.0
2019-Apr-17 05:30N 37°56' E 023°37'0 0.0
2019-Apr-17 05:00N 37°56' E 023°37'0 0.0
2019-Apr-17 04:30N 37°56' E 023°37'0 0.0
2019-Apr-17 04:00N 37°56' E 023°37'0 0.5
2019-Apr-17 03:30N 37°56' E 023°37'2 4.4
2019-Apr-17 03:00N 37°55' E 023°35'3 5.5
2019-Apr-17 02:30N 37°53' E 023°38'611.8
2019-Apr-17 02:00N 37°48' E 023°41'613.0
2019-Apr-17 01:30N 37°42' E 023°45'612.7
2019-Apr-17 01:00N 37°35' E 023°45'612.9
2019-Apr-17 00:30N 37°29' E 023°45'612.8
2019-Apr-17 00:00N 37°23' E 023°45'613.0
2019-Apr-16 23:30N 37°16' E 023°43'51 9.4
2019-Apr-16 18:03N 37°33' E 024°44'118.4
2019-Apr-16 18:00N 37°33' E 024°45'918.3
2019-Apr-16 17:30N 37°33' E 024°56'917.5
2019-Apr-16 17:00N 37°32' E 025°07'816.6
2019-Apr-16 16:30N 37°28' E 025°17'2 3.3
2019-Apr-16 15:53N 37°28' E 025°19'0 0.0
2019-Apr-16 15:26N 37°28' E 025°19'0 0.0
2019-Apr-16 14:59N 37°28' E 025°19'0 0.0
2019-Apr-16 14:29N 37°28' E 025°19'0 0.0
2019-Apr-16 13:59N 37°28' E 025°19'0 0.0
2019-Apr-16 13:29N 37°28' E 025°19'0 0.0
2019-Apr-16 12:59N 37°28' E 025°19'0 0.0
2019-Apr-16 12:29N 37°28' E 025°19'0 0.0
2019-Apr-16 11:59N 37°28' E 025°19'0 0.0
2019-Apr-16 11:29N 37°28' E 025°19'0 0.0
2019-Apr-16 10:56N 37°28' E 025°19'0 0.0
2019-Apr-16 10:29N 37°28' E 025°19'0 0.0
2019-Apr-16 09:56N 37°28' E 025°19'0 0.0
2019-Apr-16 09:29N 37°28' E 025°19'0 0.0
2019-Apr-16 08:59N 37°28' E 025°19'0 0.0
2019-Apr-16 08:29N 37°28' E 025°19'0 0.0
2019-Apr-16 07:59N 37°28' E 025°19'0 0.0
2019-Apr-16 07:30N 37°28' E 025°19'0 0.0
2019-Apr-16 07:01N 37°28' E 025°19'2 3.3
2019-Apr-16 06:31N 37°28' E 025°17'816.8
2019-Apr-16 06:00N 37°24' E 025°08'917.3
2019-Apr-16 05:30N 37°18' E 024°60'917.8
2019-Apr-16 05:00N 37°13' E 024°51'  
Track history (hours):
 
Tides and Currents Weather Stations Pressure Air Temp Water Temp Dewpoint Dewpoint Depression Visibility Wind Speed Wind Dir Waves Ship Positions

MSC Lirica

Operator: Mediterranean Shipping Company

Last reported at 2019-Apr-24 18:49 UTC. Time now 2019-Apr-25 10:47 UTC.
Position N 36°27' E 023°15'.

Length 275 m; draft 6.8 m.

Type: Passenger vessel. MMSI: 356042000.

Date/timePositionNaut miles runAvg speedWind from/ knotsBaromVisibWave heightAir tempDewpointWater temp
2019-Apr-24 18:49N 36°27' E 023°15'4818.6
2019-Apr-24 16:15N 37°10' E 023°39'518.8
2019-Apr-24 16:00N 37°15' E 023°41'918.4
2019-Apr-24 15:30N 37°23' E 023°44'918.7
2019-Apr-24 15:01N 37°33' E 023°43'918.2
2019-Apr-24 14:30N 37°42' E 023°41'918.1
2019-Apr-24 14:00N 37°50' E 023°37'612.7
2019-Apr-24 13:30N 37°56' E 023°37'0 0.6
2019-Apr-24 12:57N 37°56' E 023°38'0 0.0
2019-Apr-24 12:27N 37°56' E 023°38'0 0.0
2019-Apr-24 11:57N 37°56' E 023°38'0 0.0
2019-Apr-24 11:27N 37°56' E 023°38'0 0.0
2019-Apr-24 10:57N 37°56' E 023°38'0 0.0
2019-Apr-24 10:27N 37°56' E 023°38'0 0.0
2019-Apr-24 09:57N 37°56' E 023°38'0 0.0
2019-Apr-24 09:27N 37°56' E 023°38'0 0.0
2019-Apr-24 08:57N 37°56' E 023°38'0 0.0
2019-Apr-24 08:27N 37°56' E 023°38'0 0.0
2019-Apr-24 07:57N 37°56' E 023°38'0 0.0
2019-Apr-24 07:27N 37°56' E 023°38'0 0.0
2019-Apr-24 06:57N 37°56' E 023°38'0 0.0
2019-Apr-24 06:27N 37°56' E 023°38'0 0.0
2019-Apr-24 05:57N 37°56' E 023°38'0 0.0
2019-Apr-24 05:27N 37°56' E 023°38'0 0.0
2019-Apr-24 04:57N 37°56' E 023°38'0 0.0
2019-Apr-24 04:27N 37°56' E 023°38'0 0.0
2019-Apr-24 03:57N 37°56' E 023°38'0 0.3
2019-Apr-24 03:30N 37°56' E 023°38'3 5.0
2019-Apr-24 03:00N 37°54' E 023°35'4 7.2
2019-Apr-24 02:31N 37°52' E 023°39'612.2
2019-Apr-24 02:01N 37°47' E 023°42'713.8
2019-Apr-24 01:30N 37°40' E 023°45'715.0
2019-Apr-24 01:00N 37°32' E 023°45'714.9
2019-Apr-24 00:30N 37°25' E 023°45'714.7
2019-Apr-24 00:00N 37°18' E 023°43'714.7
2019-Apr-23 23:30N 37°11' E 023°40'1214.2
2019-Apr-23 22:41N 37°01' E 023°48'415.3
2019-Apr-23 22:24N 36°59' E 023°53'5312.5
2019-Apr-23 18:10N 37°33' E 024°44'316.8
2019-Apr-23 18:00N 37°33' E 024°48'816.5
2019-Apr-23 17:30N 37°32' E 024°58'817.0
2019-Apr-23 17:00N 37°29' E 025°08'816.0
2019-Apr-23 16:30N 37°28' E 025°18'1 2.0
2019-Apr-23 15:58N 37°28' E 025°19'0 0.0
2019-Apr-23 15:28N 37°28' E 025°19'0 0.0
2019-Apr-23 14:58N 37°28' E 025°19'0 0.0
2019-Apr-23 14:28N 37°28' E 025°19'0 0.0
2019-Apr-23 13:52N 37°28' E 025°19'0 0.0
2019-Apr-23 13:28N 37°28' E 025°19'0 0.0
2019-Apr-23 12:58N 37°28' E 025°19'0 0.0
2019-Apr-23 12:22N 37°28' E 025°19'0 0.0
2019-Apr-23 11:58N 37°28' E 025°19'0 0.0
2019-Apr-23 11:28N 37°28' E 025°19'0 0.0
2019-Apr-23 10:58N 37°28' E 025°19'0 0.0
2019-Apr-23 10:28N 37°28' E 025°19'0 0.0
2019-Apr-23 09:58N 37°28' E 025°19'0 0.0
2019-Apr-23 09:28N 37°28' E 025°19'0 0.0
2019-Apr-23 08:58N 37°28' E 025°19'0 0.0
2019-Apr-23 08:28N 37°28' E 025°19'0 0.0
2019-Apr-23 07:55N 37°28' E 025°19'0 0.0
2019-Apr-23 07:28N 37°28' E 025°19'2 5.3
2019-Apr-23 07:01N 37°28' E 025°16'816.1
2019-Apr-23 06:31N 37°24' E 025°07'918.2
2019-Apr-23 06:00N 37°17' E 024°59'918.7
2019-Apr-23 05:31N 37°12' E 024°50'  
2019-Apr-20 20:17N 44°13' E 013°12'519.0
2019-Apr-20 20:01N 44°18' E 013°09'1018.9
2019-Apr-20 19:30N 44°27' E 013°05'918.8
2019-Apr-20 19:01N 44°36' E 013°02'1018.9
2019-Apr-20 18:30N 44°45' E 012°57'918.8
2019-Apr-20 18:00N 44°53' E 012°51'918.8
2019-Apr-20 17:30N 45°01' E 012°45'918.3
2019-Apr-20 17:01N 45°08' E 012°36'917.1
2019-Apr-20 16:31N 45°15' E 012°29'917.4
2019-Apr-20 16:01N 45°24' E 012°29'5 9.5
2019-Apr-20 15:31N 45°26' E 012°23'3 5.0
2019-Apr-20 15:00N 45°26' E 012°19'1 1.3
2019-Apr-20 14:30N 45°26' E 012°19'0 0.0
2019-Apr-20 14:00N 45°26' E 012°19'0 0.0
2019-Apr-20 13:30N 45°26' E 012°19'0 0.0
2019-Apr-20 13:00N 45°26' E 012°19'0 0.0
2019-Apr-20 12:30N 45°26' E 012°19'0 0.0
2019-Apr-20 11:57N 45°26' E 012°19'0 0.0
2019-Apr-20 11:30N 45°26' E 012°19'0 0.0
2019-Apr-20 11:00N 45°26' E 012°19'0 0.0
2019-Apr-20 10:30N 45°26' E 012°19'0 0.0
2019-Apr-20 10:00N 45°26' E 012°19'0 0.0
2019-Apr-20 09:30N 45°26' E 012°19'0 0.0
2019-Apr-20 09:00N 45°26' E 012°19'0 0.0
2019-Apr-20 08:27N 45°26' E 012°19'0 0.0
2019-Apr-20 08:00N 45°26' E 012°19'0 0.0
2019-Apr-20 07:30N 45°26' E 012°19'0 0.0
2019-Apr-20 07:00N 45°26' E 012°19'1 1.0
2019-Apr-20 06:30N 45°26' E 012°19'3 5.4
2019-Apr-20 06:00N 45°26' E 012°23'4 7.8
2019-Apr-20 05:30N 45°24' E 012°28'4 8.1
2019-Apr-20 05:00N 45°21' E 012°31'713.8
2019-Apr-20 04:31N 45°15' E 012°36'918.8
2019-Apr-20 04:01N 45°09' E 012°46'918.8
2019-Apr-20 03:31N 45°04' E 012°58'918.9
2019-Apr-20 03:00N 45°00' E 013°10'918.9
2019-Apr-20 02:31N 44°56' E 013°22'918.7
2019-Apr-20 02:01N 44°48' E 013°29'918.6
2019-Apr-20 01:30N 44°41' E 013°36'918.6
2019-Apr-20 01:01N 44°33' E 013°44'918.5
2019-Apr-20 00:30N 44°25' E 013°51'1018.6
2019-Apr-19 23:59N 44°17' E 013°58'1618.6
2019-Apr-19 23:07N 44°04' E 014°11'218.6
2019-Apr-19 23:00N 44°02' E 014°13'  
2019-Apr-17 15:38N 37°17' E 023°42'618.7
2019-Apr-17 15:19N 37°23' E 023°44'618.8
2019-Apr-17 15:00N 37°29' E 023°43'918.4
2019-Apr-17 14:30N 37°38' E 023°43'918.5
2019-Apr-17 14:00N 37°47' E 023°38'917.6
2019-Apr-17 13:30N 37°56' E 023°37'1 1.7
2019-Apr-17 13:00N 37°56' E 023°37'0 0.0
2019-Apr-17 12:30N 37°56' E 023°37'0 0.0
2019-Apr-17 12:00N 37°56' E 023°37'0 0.0
2019-Apr-17 11:30N 37°56' E 023°37'0 0.0
2019-Apr-17 11:00N 37°56' E 023°37'0 0.0
2019-Apr-17 10:30N 37°56' E 023°37'0 0.0
2019-Apr-17 10:00N 37°56' E 023°37'0 0.0
2019-Apr-17 09:30N 37°56' E 023°37'0 0.0
2019-Apr-17 09:00N 37°56' E 023°37'0 0.0
2019-Apr-17 08:30N 37°56' E 023°37'0 0.0
2019-Apr-17 08:00N 37°56' E 023°37'0 0.0
2019-Apr-17 07:30N 37°56' E 023°37'0 0.0
2019-Apr-17 07:00N 37°56' E 023°37'0 0.0
2019-Apr-17 06:30N 37°56' E 023°37'0 0.0
2019-Apr-17 06:00N 37°56' E 023°37'0 0.0
2019-Apr-17 05:30N 37°56' E 023°37'0 0.0
2019-Apr-17 05:00N 37°56' E 023°37'0 0.0
2019-Apr-17 04:30N 37°56' E 023°37'0 0.0
2019-Apr-17 04:00N 37°56' E 023°37'0 0.5
2019-Apr-17 03:30N 37°56' E 023°37'2 4.4
2019-Apr-17 03:00N 37°55' E 023°35'3 5.5
2019-Apr-17 02:30N 37°53' E 023°38'611.8
2019-Apr-17 02:00N 37°48' E 023°41'613.0
2019-Apr-17 01:30N 37°42' E 023°45'612.7
2019-Apr-17 01:00N 37°35' E 023°45'612.9
2019-Apr-17 00:30N 37°29' E 023°45'612.8
2019-Apr-17 00:00N 37°23' E 023°45'613.0
2019-Apr-16 23:30N 37°16' E 023°43'51 9.4
2019-Apr-16 18:03N 37°33' E 024°44'118.4
2019-Apr-16 18:00N 37°33' E 024°45'918.3
2019-Apr-16 17:30N 37°33' E 024°56'917.5
2019-Apr-16 17:00N 37°32' E 025°07'816.6
2019-Apr-16 16:30N 37°28' E 025°17'2 3.3
2019-Apr-16 15:53N 37°28' E 025°19'0 0.0
2019-Apr-16 15:26N 37°28' E 025°19'0 0.0
2019-Apr-16 14:59N 37°28' E 025°19'0 0.0
2019-Apr-16 14:29N 37°28' E 025°19'0 0.0
2019-Apr-16 13:59N 37°28' E 025°19'0 0.0
2019-Apr-16 13:29N 37°28' E 025°19'0 0.0
2019-Apr-16 12:59N 37°28' E 025°19'0 0.0
2019-Apr-16 12:29N 37°28' E 025°19'0 0.0
2019-Apr-16 11:59N 37°28' E 025°19'0 0.0
2019-Apr-16 11:29N 37°28' E 025°19'0 0.0
2019-Apr-16 10:56N 37°28' E 025°19'0 0.0
2019-Apr-16 10:29N 37°28' E 025°19'0 0.0
2019-Apr-16 09:56N 37°28' E 025°19'0 0.0
2019-Apr-16 09:29N 37°28' E 025°19'0 0.0
2019-Apr-16 08:59N 37°28' E 025°19'0 0.0
2019-Apr-16 08:29N 37°28' E 025°19'0 0.0
2019-Apr-16 07:59N 37°28' E 025°19'0 0.0
2019-Apr-16 07:30N 37°28' E 025°19'0 0.0
2019-Apr-16 07:01N 37°28' E 025°19'2 3.3
2019-Apr-16 06:31N 37°28' E 025°17'816.8
2019-Apr-16 06:00N 37°24' E 025°08'917.3
2019-Apr-16 05:30N 37°18' E 024°60'917.8
2019-Apr-16 05:00N 37°13' E 024°51'  

Dump ship's entire track history